sensor_id;sensor_type;location;lat;lon;timestamp;pressure;altitude;pressure_sealevel;temperature;humidity
64368;BME280;50692;53.314;-6.300;2023-07-29T00:02:03;99684.91;;;16.04;81.38
64368;BME280;50692;53.314;-6.300;2023-07-29T00:04:50;99683.22;;;15.94;82.33
64368;BME280;50692;53.314;-6.300;2023-07-29T00:07:36;99684.78;;;15.96;82.38
64368;BME280;50692;53.314;-6.300;2023-07-29T00:10:22;99687.72;;;16.03;81.94
64368;BME280;50692;53.314;-6.300;2023-07-29T00:13:08;99669.34;;;16.00;81.88
64368;BME280;50692;53.314;-6.300;2023-07-29T00:15:54;99677.50;;;15.98;81.90
64368;BME280;50692;53.314;-6.300;2023-07-29T00:18:41;99675.94;;;15.96;82.89
64368;BME280;50692;53.314;-6.300;2023-07-29T00:21:26;99675.53;;;15.91;83.37
64368;BME280;50692;53.314;-6.300;2023-07-29T00:24:12;99668.38;;;15.91;83.31
64368;BME280;50692;53.314;-6.300;2023-07-29T00:26:58;99672.72;;;15.92;83.29
64368;BME280;50692;53.314;-6.300;2023-07-29T00:29:44;99670.88;;;15.93;83.43
64368;BME280;50692;53.314;-6.300;2023-07-29T00:32:30;99675.66;;;15.89;83.50
64368;BME280;50692;53.314;-6.300;2023-07-29T00:35:16;99672.88;;;15.91;83.32
64368;BME280;50692;53.314;-6.300;2023-07-29T00:38:02;99672.84;;;15.81;83.93
64368;BME280;50692;53.314;-6.300;2023-07-29T00:40:48;99683.38;;;15.82;83.75
64368;BME280;50692;53.314;-6.300;2023-07-29T00:43:34;99687.56;;;15.85;83.46
64368;BME280;50692;53.314;-6.300;2023-07-29T00:46:20;99674.97;;;15.77;83.88
64368;BME280;50692;53.314;-6.300;2023-07-29T00:49:07;99684.34;;;15.81;83.97
64368;BME280;50692;53.314;-6.300;2023-07-29T00:51:53;99673.97;;;15.78;83.92
64368;BME280;50692;53.314;-6.300;2023-07-29T00:54:39;99674.81;;;15.79;83.71
64368;BME280;50692;53.314;-6.300;2023-07-29T00:57:26;99670.31;;;15.79;83.93
64368;BME280;50692;53.314;-6.300;2023-07-29T01:00:15;99682.25;;;15.85;83.50
64368;BME280;50692;53.314;-6.300;2023-07-29T01:03:01;99679.03;;;15.81;83.59
64368;BME280;50692;53.314;-6.300;2023-07-29T01:06:13;99680.00;;;15.90;83.16
64368;BME280;50692;53.314;-6.300;2023-07-29T01:09:14;99676.38;;;15.91;83.12
64368;BME280;50692;53.314;-6.300;2023-07-29T01:15:36;99675.50;;;16.00;82.81
64368;BME280;50692;53.314;-6.300;2023-07-29T01:18:25;99671.16;;;15.90;82.92
64368;BME280;50692;53.314;-6.300;2023-07-29T01:21:13;99673.56;;;15.93;82.48
64368;BME280;50692;53.314;-6.300;2023-07-29T01:23:59;99674.53;;;15.92;82.72
64368;BME280;50692;53.314;-6.300;2023-07-29T01:26:45;99677.22;;;15.92;82.35
64368;BME280;50692;53.314;-6.300;2023-07-29T01:29:31;99671.59;;;15.85;82.39
64368;BME280;50692;53.314;-6.300;2023-07-29T01:32:43;99665.41;;;15.75;82.85
64368;BME280;50692;53.314;-6.300;2023-07-29T01:35:32;99664.84;;;15.71;83.21
64368;BME280;50692;53.314;-6.300;2023-07-29T01:38:21;99663.34;;;15.69;83.28
64368;BME280;50692;53.314;-6.300;2023-07-29T01:41:10;99661.03;;;15.64;83.50
64368;BME280;50692;53.314;-6.300;2023-07-29T01:43:56;99663.56;;;15.56;83.74
64368;BME280;50692;53.314;-6.300;2023-07-29T01:46:44;99659.34;;;15.53;84.02
64368;BME280;50692;53.314;-6.300;2023-07-29T01:49:29;99651.94;;;15.47;83.93
64368;BME280;50692;53.314;-6.300;2023-07-29T01:52:15;99655.69;;;15.45;83.88
64368;BME280;50692;53.314;-6.300;2023-07-29T01:55:02;99650.25;;;15.37;83.97
64368;BME280;50692;53.314;-6.300;2023-07-29T01:57:47;99643.34;;;15.34;84.08
64368;BME280;50692;53.314;-6.300;2023-07-29T02:00:33;99653.84;;;15.35;84.35
64368;BME280;50692;53.314;-6.300;2023-07-29T02:03:19;99651.88;;;15.28;84.43
64368;BME280;50692;53.314;-6.300;2023-07-29T02:06:05;99658.34;;;15.35;83.95
64368;BME280;50692;53.314;-6.300;2023-07-29T02:08:50;99663.09;;;15.31;84.11
64368;BME280;50692;53.314;-6.300;2023-07-29T02:11:36;99652.44;;;15.31;83.74
64368;BME280;50692;53.314;-6.300;2023-07-29T02:14:22;99669.25;;;15.32;84.26
64368;BME280;50692;53.314;-6.300;2023-07-29T02:17:08;99668.97;;;15.25;84.39
64368;BME280;50692;53.314;-6.300;2023-07-29T02:19:54;99668.97;;;15.25;84.49
64368;BME280;50692;53.314;-6.300;2023-07-29T02:22:40;99671.50;;;15.27;84.69
64368;BME280;50692;53.314;-6.300;2023-07-29T02:25:26;99666.44;;;15.24;84.71
64368;BME280;50692;53.314;-6.300;2023-07-29T02:28:11;99667.69;;;15.20;84.92
64368;BME280;50692;53.314;-6.300;2023-07-29T02:31:21;99672.88;;;15.21;85.33
64368;BME280;50692;53.314;-6.300;2023-07-29T02:34:07;99667.44;;;15.23;85.03
64368;BME280;50692;53.314;-6.300;2023-07-29T02:36:52;99672.47;;;15.16;85.12
64368;BME280;50692;53.314;-6.300;2023-07-29T02:39:38;99674.13;;;15.17;85.17
64368;BME280;50692;53.314;-6.300;2023-07-29T02:42:24;99672.88;;;15.11;85.40
64368;BME280;50692;53.314;-6.300;2023-07-29T02:45:10;99667.94;;;15.07;85.81
64368;BME280;50692;53.314;-6.300;2023-07-29T02:47:57;99660.25;;;15.14;85.07
64368;BME280;50692;53.314;-6.300;2023-07-29T02:50:43;99663.63;;;15.16;84.69
64368;BME280;50692;53.314;-6.300;2023-07-29T02:53:28;99665.00;;;15.10;84.99
64368;BME280;50692;53.314;-6.300;2023-07-29T02:56:14;99663.88;;;15.03;85.39
64368;BME280;50692;53.314;-6.300;2023-07-29T02:59:00;99658.44;;;15.04;85.06
64368;BME280;50692;53.314;-6.300;2023-07-29T03:01:46;99660.91;;;14.96;85.47
64368;BME280;50692;53.314;-6.300;2023-07-29T03:04:34;99660.78;;;14.98;85.33
64368;BME280;50692;53.314;-6.300;2023-07-29T03:07:19;99654.16;;;14.92;85.59
64368;BME280;50692;53.314;-6.300;2023-07-29T03:10:06;99642.94;;;14.88;85.41
64368;BME280;50692;53.314;-6.300;2023-07-29T03:12:54;99646.59;;;14.87;85.28
64368;BME280;50692;53.314;-6.300;2023-07-29T03:15:43;99651.91;;;14.87;84.83
64368;BME280;50692;53.314;-6.300;2023-07-29T03:18:29;99645.63;;;14.88;84.83
64368;BME280;50692;53.314;-6.300;2023-07-29T03:21:14;99645.75;;;14.87;84.44
64368;BME280;50692;53.314;-6.300;2023-07-29T03:24:00;99650.53;;;14.93;83.95
64368;BME280;50692;53.314;-6.300;2023-07-29T03:26:46;99644.06;;;14.86;83.92
64368;BME280;50692;53.314;-6.300;2023-07-29T03:29:32;99646.34;;;14.91;83.60
64368;BME280;50692;53.314;-6.300;2023-07-29T03:32:18;99639.31;;;14.90;83.44
64368;BME280;50692;53.314;-6.300;2023-07-29T03:35:04;99637.78;;;14.87;83.17
64368;BME280;50692;53.314;-6.300;2023-07-29T03:37:50;99636.22;;;14.84;83.03
64368;BME280;50692;53.314;-6.300;2023-07-29T03:40:35;99633.81;;;14.81;82.91
64368;BME280;50692;53.314;-6.300;2023-07-29T03:43:21;99637.47;;;14.80;82.76
64368;BME280;50692;53.314;-6.300;2023-07-29T03:46:07;99634.09;;;14.78;82.65
64368;BME280;50692;53.314;-6.300;2023-07-29T03:48:53;99629.03;;;14.75;82.68
64368;BME280;50692;53.314;-6.300;2023-07-29T03:51:39;99640.25;;;14.79;82.31
64368;BME280;50692;53.314;-6.300;2023-07-29T03:54:24;99633.41;;;14.76;81.97
64368;BME280;50692;53.314;-6.300;2023-07-29T03:57:10;99642.78;;;14.80;81.72
64368;BME280;50692;53.314;-6.300;2023-07-29T03:59:56;99632.63;;;14.64;82.11
64368;BME280;50692;53.314;-6.300;2023-07-29T04:02:42;99630.84;;;14.75;81.73
64368;BME280;50692;53.314;-6.300;2023-07-29T04:05:28;99639.69;;;14.75;81.44
64368;BME280;50692;53.314;-6.300;2023-07-29T04:08:14;99633.34;;;14.67;81.35
64368;BME280;50692;53.314;-6.300;2023-07-29T04:10:59;99629.44;;;14.71;80.76
64368;BME280;50692;53.314;-6.300;2023-07-29T04:13:45;99639.66;;;14.66;80.91
64368;BME280;50692;53.314;-6.300;2023-07-29T04:16:31;99637.00;;;14.66;80.60
64368;BME280;50692;53.314;-6.300;2023-07-29T04:19:17;99634.44;;;14.64;80.47
64368;BME280;50692;53.314;-6.300;2023-07-29T04:22:03;99625.06;;;14.60;80.44
64368;BME280;50692;53.314;-6.300;2023-07-29T04:24:49;99632.19;;;14.59;80.65
64368;BME280;50692;53.314;-6.300;2023-07-29T04:27:34;99644.56;;;14.70;80.27
64368;BME280;50692;53.314;-6.300;2023-07-29T04:30:20;99632.03;;;14.51;81.09
64368;BME280;50692;53.314;-6.300;2023-07-29T04:33:06;99640.84;;;14.52;81.19
64368;BME280;50692;53.314;-6.300;2023-07-29T04:35:52;99634.03;;;14.59;81.04
64368;BME280;50692;53.314;-6.300;2023-07-29T04:38:38;99639.59;;;14.56;81.05
64368;BME280;50692;53.314;-6.300;2023-07-29T04:41:24;99637.34;;;14.51;81.50
64368;BME280;50692;53.314;-6.300;2023-07-29T04:44:09;99642.78;;;14.50;81.47
64368;BME280;50692;53.314;-6.300;2023-07-29T04:46:55;99639.41;;;14.48;81.83
64368;BME280;50692;53.314;-6.300;2023-07-29T04:49:41;99648.22;;;14.48;81.83
64368;BME280;50692;53.314;-6.300;2023-07-29T04:52:27;99655.63;;;14.45;81.99
64368;BME280;50692;53.314;-6.300;2023-07-29T04:55:13;99647.63;;;14.45;81.91
64368;BME280;50692;53.314;-6.300;2023-07-29T04:57:58;99649.72;;;14.41;82.00
64368;BME280;50692;53.314;-6.300;2023-07-29T05:00:48;99593.03;;;14.10;81.95
64368;BME280;50692;53.314;-6.300;2023-07-29T05:03:34;99652.06;;;14.55;81.35
64368;BME280;50692;53.314;-6.300;2023-07-29T05:06:20;99646.91;;;14.43;81.72
64368;BME280;50692;53.314;-6.300;2023-07-29T05:09:16;99627.47;;;14.42;81.48
64368;BME280;50692;53.314;-6.300;2023-07-29T05:12:03;99633.63;;;14.43;81.47
64368;BME280;50692;53.314;-6.300;2023-07-29T05:14:49;99632.38;;;14.47;81.49
64368;BME280;50692;53.314;-6.300;2023-07-29T05:17:35;99645.81;;;14.45;81.33
64368;BME280;50692;53.314;-6.300;2023-07-29T05:20:21;99647.22;;;14.49;81.12
64368;BME280;50692;53.314;-6.300;2023-07-29T05:23:06;99640.13;;;14.50;81.09
64368;BME280;50692;53.314;-6.300;2023-07-29T05:25:52;99641.69;;;14.52;81.04
64368;BME280;50692;53.314;-6.300;2023-07-29T05:28:38;99634.81;;;14.50;81.11
64368;BME280;50692;53.314;-6.300;2023-07-29T05:31:24;99635.00;;;14.58;80.72
64368;BME280;50692;53.314;-6.300;2023-07-29T05:34:10;99627.16;;;14.56;81.05
64368;BME280;50692;53.314;-6.300;2023-07-29T05:36:55;99629.59;;;14.48;81.05
64368;BME280;50692;53.314;-6.300;2023-07-29T05:39:41;99644.66;;;14.59;81.10
64368;BME280;50692;53.314;-6.300;2023-07-29T05:42:27;99625.63;;;14.63;80.78
64368;BME280;50692;53.314;-6.300;2023-07-29T05:45:13;99612.19;;;14.55;80.83
64368;BME280;50692;53.314;-6.300;2023-07-29T05:47:59;99623.69;;;14.66;80.72
64368;BME280;50692;53.314;-6.300;2023-07-29T05:50:44;99617.41;;;14.67;80.88
64368;BME280;50692;53.314;-6.300;2023-07-29T05:53:31;99612.06;;;14.67;80.71
64368;BME280;50692;53.314;-6.300;2023-07-29T05:56:16;99633.66;;;14.73;80.70
64368;BME280;50692;53.314;-6.300;2023-07-29T05:59:02;99616.56;;;14.66;80.73
64368;BME280;50692;53.314;-6.300;2023-07-29T06:01:48;99623.59;;;14.77;80.85
64368;BME280;50692;53.314;-6.300;2023-07-29T06:04:34;99626.31;;;14.86;80.57
64368;BME280;50692;53.314;-6.300;2023-07-29T06:07:20;99631.91;;;14.93;80.30
64368;BME280;50692;53.314;-6.300;2023-07-29T06:10:06;99625.50;;;15.05;80.38
64368;BME280;50692;53.314;-6.300;2023-07-29T06:12:53;99626.50;;;15.04;79.75
64368;BME280;50692;53.314;-6.300;2023-07-29T06:15:39;99635.88;;;15.18;79.13
64368;BME280;50692;53.314;-6.300;2023-07-29T06:18:25;99641.66;;;15.23;78.65
64368;BME280;50692;53.314;-6.300;2023-07-29T06:21:10;99642.06;;;15.28;78.27
64368;BME280;50692;53.314;-6.300;2023-07-29T06:24:02;99646.59;;;15.38;77.84
64368;BME280;50692;53.314;-6.300;2023-07-29T06:26:48;99641.25;;;15.38;77.67
64368;BME280;50692;53.314;-6.300;2023-07-29T06:29:34;99646.88;;;15.44;77.59
64368;BME280;50692;53.314;-6.300;2023-07-29T06:32:20;99647.56;;;15.56;77.07
64368;BME280;50692;53.314;-6.300;2023-07-29T06:35:06;99632.88;;;15.52;76.85
64368;BME280;50692;53.314;-6.300;2023-07-29T06:37:52;99638.75;;;15.65;76.18
64368;BME280;50692;53.314;-6.300;2023-07-29T06:40:37;99648.88;;;15.81;75.98
64368;BME280;50692;53.314;-6.300;2023-07-29T06:43:23;99658.28;;;15.85;75.76
64368;BME280;50692;53.314;-6.300;2023-07-29T06:46:09;99647.59;;;15.75;75.91
64368;BME280;50692;53.314;-6.300;2023-07-29T06:48:55;99661.22;;;15.82;75.78
64368;BME280;50692;53.314;-6.300;2023-07-29T06:51:41;99664.72;;;15.82;75.57
64368;BME280;50692;53.314;-6.300;2023-07-29T06:54:26;99666.97;;;15.77;75.35
64368;BME280;50692;53.314;-6.300;2023-07-29T06:57:12;99666.69;;;15.80;75.33
64368;BME280;50692;53.314;-6.300;2023-07-29T06:59:58;99663.44;;;15.87;75.39
64368;BME280;50692;53.314;-6.300;2023-07-29T07:02:44;99673.16;;;15.88;75.49
64368;BME280;50692;53.314;-6.300;2023-07-29T07:05:30;99667.78;;;15.97;75.26
64368;BME280;50692;53.314;-6.300;2023-07-29T07:08:15;99663.88;;;16.01;74.87
64368;BME280;50692;53.314;-6.300;2023-07-29T07:11:01;99666.69;;;16.00;74.33
64368;BME280;50692;53.314;-6.300;2023-07-29T07:13:47;99672.72;;;16.02;74.43
64368;BME280;50692;53.314;-6.300;2023-07-29T07:16:33;99665.69;;;16.01;74.41
64368;BME280;50692;53.314;-6.300;2023-07-29T07:19:21;99662.91;;;16.12;74.30
64368;BME280;50692;53.314;-6.300;2023-07-29T07:22:06;99668.47;;;16.19;74.10
64368;BME280;50692;53.314;-6.300;2023-07-29T07:24:52;99675.78;;;16.26;73.95
64368;BME280;50692;53.314;-6.300;2023-07-29T07:27:38;99670.28;;;16.38;73.55
64368;BME280;50692;53.314;-6.300;2023-07-29T07:30:24;99662.69;;;16.33;72.83
64368;BME280;50692;53.314;-6.300;2023-07-29T07:33:09;99671.94;;;16.48;73.08
64368;BME280;50692;53.314;-6.300;2023-07-29T07:35:55;99669.53;;;16.55;72.69
64368;BME280;50692;53.314;-6.300;2023-07-29T07:38:41;99675.81;;;16.64;72.04
64368;BME280;50692;53.314;-6.300;2023-07-29T07:41:27;99673.00;;;16.75;72.40
64368;BME280;50692;53.314;-6.300;2023-07-29T07:44:13;99684.47;;;16.85;71.59
64368;BME280;50692;53.314;-6.300;2023-07-29T07:47:00;99683.16;;;16.99;71.42
64368;BME280;50692;53.314;-6.300;2023-07-29T07:49:46;99693.66;;;17.10;70.99
64368;BME280;50692;53.314;-6.300;2023-07-29T07:52:34;99684.78;;;17.10;70.64
64368;BME280;50692;53.314;-6.300;2023-07-29T07:55:20;99709.09;;;17.16;69.63
64368;BME280;50692;53.314;-6.300;2023-07-29T07:58:06;99696.66;;;17.25;69.33
64368;BME280;50692;53.314;-6.300;2023-07-29T08:00:52;99701.78;;;17.36;69.20
64368;BME280;50692;53.314;-6.300;2023-07-29T08:03:37;99708.38;;;17.42;69.09
64368;BME280;50692;53.314;-6.300;2023-07-29T08:06:23;99708.97;;;17.36;69.39
64368;BME280;50692;53.314;-6.300;2023-07-29T08:09:10;99700.72;;;17.29;69.60
64368;BME280;50692;53.314;-6.300;2023-07-29T08:11:55;99714.91;;;17.30;69.59
64368;BME280;50692;53.314;-6.300;2023-07-29T08:14:41;99711.63;;;17.36;69.75
64368;BME280;50692;53.314;-6.300;2023-07-29T08:17:28;99711.69;;;17.26;70.25
64368;BME280;50692;53.314;-6.300;2023-07-29T08:20:13;99703.91;;;17.33;69.91
64368;BME280;50692;53.314;-6.300;2023-07-29T08:22:59;99703.56;;;17.45;69.45
64368;BME280;50692;53.314;-6.300;2023-07-29T08:25:51;99690.84;;;17.57;68.67
64368;BME280;50692;53.314;-6.300;2023-07-29T08:28:38;99697.84;;;17.58;68.45
64368;BME280;50692;53.314;-6.300;2023-07-29T08:31:24;99707.56;;;17.59;68.96
64368;BME280;50692;53.314;-6.300;2023-07-29T08:34:10;99702.66;;;17.82;68.68
64368;BME280;50692;53.314;-6.300;2023-07-29T08:36:56;99696.69;;;17.88;67.88
64368;BME280;50692;53.314;-6.300;2023-07-29T08:39:42;99699.19;;;18.08;67.34
64368;BME280;50692;53.314;-6.300;2023-07-29T08:42:31;99702.31;;;18.21;65.78
64368;BME280;50692;53.314;-6.300;2023-07-29T08:45:17;99725.16;;;18.33;65.92
64368;BME280;50692;53.314;-6.300;2023-07-29T08:48:08;99715.19;;;18.43;65.04
64368;BME280;50692;53.314;-6.300;2023-07-29T08:50:56;99719.75;;;18.51;64.74
64368;BME280;50692;53.314;-6.300;2023-07-29T08:53:43;99722.69;;;18.66;64.29
64368;BME280;50692;53.314;-6.300;2023-07-29T08:56:29;99713.78;;;18.75;64.21
64368;BME280;50692;53.314;-6.300;2023-07-29T08:59:16;99719.28;;;19.08;63.52
64368;BME280;50692;53.314;-6.300;2023-07-29T09:02:02;99717.44;;;19.08;62.93
64368;BME280;50692;53.314;-6.300;2023-07-29T09:04:48;99718.34;;;19.17;62.21
64368;BME280;50692;53.314;-6.300;2023-07-29T09:07:35;99719.09;;;19.35;61.17
64368;BME280;50692;53.314;-6.300;2023-07-29T09:10:22;99720.63;;;19.46;61.53
64368;BME280;50692;53.314;-6.300;2023-07-29T09:13:09;99727.69;;;19.55;61.18
64368;BME280;50692;53.314;-6.300;2023-07-29T09:15:55;99727.44;;;19.67;60.97
64368;BME280;50692;53.314;-6.300;2023-07-29T09:18:42;99727.25;;;19.76;61.00
64368;BME280;50692;53.314;-6.300;2023-07-29T09:21:29;99726.44;;;19.84;59.66
64368;BME280;50692;53.314;-6.300;2023-07-29T09:24:18;99750.56;;;19.84;59.55
64368;BME280;50692;53.314;-6.300;2023-07-29T09:27:06;99723.59;;;19.77;59.81
64368;BME280;50692;53.314;-6.300;2023-07-29T09:29:53;99732.78;;;19.67;60.50
64368;BME280;50692;53.314;-6.300;2023-07-29T09:32:39;99742.28;;;19.61;60.29
64368;BME280;50692;53.314;-6.300;2023-07-29T09:35:29;99735.97;;;19.70;60.25
64368;BME280;50692;53.314;-6.300;2023-07-29T09:38:15;99738.84;;;19.85;59.84
64368;BME280;50692;53.314;-6.300;2023-07-29T09:41:01;99737.66;;;19.87;60.02
64368;BME280;50692;53.314;-6.300;2023-07-29T09:43:48;99723.59;;;19.77;59.97
64368;BME280;50692;53.314;-6.300;2023-07-29T09:46:39;99735.81;;;19.72;59.86
64368;BME280;50692;53.314;-6.300;2023-07-29T09:49:25;99736.78;;;19.62;60.66
64368;BME280;50692;53.314;-6.300;2023-07-29T09:52:11;99729.81;;;19.44;61.69
64368;BME280;50692;53.314;-6.300;2023-07-29T09:54:57;99734.00;;;19.38;62.01
64368;BME280;50692;53.314;-6.300;2023-07-29T09:57:43;99735.81;;;19.29;62.63
64368;BME280;50692;53.314;-6.300;2023-07-29T10:00:30;99733.59;;;19.16;62.37
64368;BME280;50692;53.314;-6.300;2023-07-29T10:03:17;99737.44;;;19.22;63.85
64368;BME280;50692;53.314;-6.300;2023-07-29T10:06:05;99731.31;;;19.38;64.22
64368;BME280;50692;53.314;-6.300;2023-07-29T10:08:51;99745.09;;;19.51;62.65
64368;BME280;50692;53.314;-6.300;2023-07-29T10:11:37;99741.69;;;19.41;61.76
64368;BME280;50692;53.314;-6.300;2023-07-29T10:14:27;99745.25;;;19.50;61.56
64368;BME280;50692;53.314;-6.300;2023-07-29T10:17:15;99749.22;;;19.72;60.45
64368;BME280;50692;53.314;-6.300;2023-07-29T10:20:03;99765.81;;;19.83;60.39
64368;BME280;50692;53.314;-6.300;2023-07-29T10:22:51;99757.78;;;19.75;60.79
64368;BME280;50692;53.314;-6.300;2023-07-29T10:25:39;99763.31;;;19.74;60.95
64368;BME280;50692;53.314;-6.300;2023-07-29T10:28:27;99762.66;;;19.88;61.43
64368;BME280;50692;53.314;-6.300;2023-07-29T10:31:18;99763.88;;;20.18;60.19
64368;BME280;50692;53.314;-6.300;2023-07-29T10:34:06;99750.97;;;20.30;59.61
64368;BME280;50692;53.314;-6.300;2023-07-29T10:36:52;99742.09;;;20.29;59.20
64368;BME280;50692;53.314;-6.300;2023-07-29T10:39:39;99761.03;;;20.28;59.78
64368;BME280;50692;53.314;-6.300;2023-07-29T10:42:25;99750.78;;;20.23;60.12
64368;BME280;50692;53.314;-6.300;2023-07-29T10:45:21;99753.31;;;20.17;60.26
64368;BME280;50692;53.314;-6.300;2023-07-29T10:48:13;99745.63;;;20.38;60.27
64368;BME280;50692;53.314;-6.300;2023-07-29T10:51:35;99753.69;;;20.54;58.39
64368;BME280;50692;53.314;-6.300;2023-07-29T10:54:21;99753.00;;;20.69;57.08
64368;BME280;50692;53.314;-6.300;2023-07-29T10:57:07;99751.50;;;20.58;56.76
64368;BME280;50692;53.314;-6.300;2023-07-29T10:59:54;99753.31;;;20.41;58.83
64368;BME280;50692;53.314;-6.300;2023-07-29T11:02:56;99752.81;;;20.21;59.03
64368;BME280;50692;53.314;-6.300;2023-07-29T11:05:50;99782.59;;;19.77;64.78
64368;BME280;50692;53.314;-6.300;2023-07-29T11:08:36;99796.91;;;19.26;71.64
64368;BME280;50692;53.314;-6.300;2023-07-29T11:11:22;99787.16;;;18.90;75.20
64368;BME280;50692;53.314;-6.300;2023-07-29T11:14:07;99797.34;;;18.51;76.41
64368;BME280;50692;53.314;-6.300;2023-07-29T11:16:53;99780.34;;;17.98;78.90
64368;BME280;50692;53.314;-6.300;2023-07-29T11:19:39;99792.09;;;17.88;79.68
64368;BME280;50692;53.314;-6.300;2023-07-29T11:22:27;99787.53;;;17.70;80.19
64368;BME280;50692;53.314;-6.300;2023-07-29T11:25:15;99802.53;;;17.81;80.83
64368;BME280;50692;53.314;-6.300;2023-07-29T11:28:02;99792.13;;;18.24;81.66
64368;BME280;50692;53.314;-6.300;2023-07-29T11:30:49;99804.59;;;18.59;80.36
64368;BME280;50692;53.314;-6.300;2023-07-29T11:33:38;99797.97;;;18.63;79.56
64368;BME280;50692;53.314;-6.300;2023-07-29T11:36:24;99799.72;;;18.72;78.25
64368;BME280;50692;53.314;-6.300;2023-07-29T11:39:10;99800.38;;;18.92;78.19
64368;BME280;50692;53.314;-6.300;2023-07-29T11:41:57;99814.13;;;18.97;77.69
64368;BME280;50692;53.314;-6.300;2023-07-29T11:44:44;99809.69;;;19.06;75.53
64368;BME280;50692;53.314;-6.300;2023-07-29T11:47:31;99794.84;;;19.54;76.61
64368;BME280;50692;53.314;-6.300;2023-07-29T11:50:17;99792.38;;;20.03;73.92
64368;BME280;50692;53.314;-6.300;2023-07-29T11:53:02;99818.41;;;20.43;70.22
64368;BME280;50692;53.314;-6.300;2023-07-29T11:55:51;99790.75;;;20.75;71.05
64368;BME280;50692;53.314;-6.300;2023-07-29T11:58:38;99795.06;;;21.01;67.50
64368;BME280;50692;53.314;-6.300;2023-07-29T12:01:24;99789.44;;;21.43;67.88
64368;BME280;50692;53.314;-6.300;2023-07-29T12:04:10;99794.69;;;21.76;65.47
64368;BME280;50692;53.314;-6.300;2023-07-29T12:06:56;99782.50;;;21.88;63.03
64368;BME280;50692;53.314;-6.300;2023-07-29T12:09:42;99788.28;;;22.08;61.35
64368;BME280;50692;53.314;-6.300;2023-07-29T12:12:29;99797.84;;;22.11;60.36
64368;BME280;50692;53.314;-6.300;2023-07-29T12:15:25;99789.28;;;22.07;61.22
64368;BME280;50692;53.314;-6.300;2023-07-29T12:18:12;99785.50;;;22.24;59.45
64368;BME280;50692;53.314;-6.300;2023-07-29T12:20:58;99798.72;;;22.34;58.69
64368;BME280;50692;53.314;-6.300;2023-07-29T12:23:44;99786.56;;;22.38;56.93
64368;BME280;50692;53.314;-6.300;2023-07-29T12:26:29;99782.00;;;22.62;56.33
64368;BME280;50692;53.314;-6.300;2023-07-29T12:29:17;99782.63;;;22.87;55.56
64368;BME280;50692;53.314;-6.300;2023-07-29T12:32:05;99783.97;;;23.20;53.22
64368;BME280;50692;53.314;-6.300;2023-07-29T12:34:53;99773.28;;;23.27;51.46
64368;BME280;50692;53.314;-6.300;2023-07-29T12:37:39;99779.50;;;23.13;51.67
64368;BME280;50692;53.314;-6.300;2023-07-29T12:40:28;99776.81;;;23.13;51.67
64368;BME280;50692;53.314;-6.300;2023-07-29T12:43:14;99779.81;;;23.18;51.24
64368;BME280;50692;53.314;-6.300;2023-07-29T12:46:00;99759.31;;;23.38;51.81
64368;BME280;50692;53.314;-6.300;2023-07-29T12:48:45;99772.06;;;23.44;50.93
64368;BME280;50692;53.314;-6.300;2023-07-29T12:51:31;99774.78;;;23.00;50.91
64368;BME280;50692;53.314;-6.300;2023-07-29T12:54:17;99769.25;;;22.56;51.72
64368;BME280;50692;53.314;-6.300;2023-07-29T12:57:03;99810.34;;;22.03;50.90
64368;BME280;50692;53.314;-6.300;2023-07-29T12:59:49;99814.06;;;21.94;52.37
64368;BME280;50692;53.314;-6.300;2023-07-29T13:02:35;99803.84;;;21.90;56.78
64368;BME280;50692;53.314;-6.300;2023-07-29T13:05:21;99820.00;;;21.90;58.43
64368;BME280;50692;53.314;-6.300;2023-07-29T13:08:07;99825.28;;;21.67;59.09
64368;BME280;50692;53.314;-6.300;2023-07-29T13:10:52;99818.53;;;21.40;61.08
64368;BME280;50692;53.314;-6.300;2023-07-29T13:13:38;99818.22;;;21.02;64.50
64368;BME280;50692;53.314;-6.300;2023-07-29T13:16:24;99831.88;;;20.76;68.18
64368;BME280;50692;53.314;-6.300;2023-07-29T13:19:10;99819.09;;;20.45;70.19
64368;BME280;50692;53.314;-6.300;2023-07-29T13:21:56;99825.59;;;20.18;71.80
64368;BME280;50692;53.314;-6.300;2023-07-29T13:24:42;99829.94;;;20.11;73.10
64368;BME280;50692;53.314;-6.300;2023-07-29T13:27:27;99819.88;;;20.13;72.57
64368;BME280;50692;53.314;-6.300;2023-07-29T13:30:14;99822.31;;;20.57;71.58
64368;BME280;50692;53.314;-6.300;2023-07-29T13:33:01;99819.78;;;20.80;68.70
64368;BME280;50692;53.314;-6.300;2023-07-29T13:35:47;99822.91;;;21.24;67.06
64368;BME280;50692;53.314;-6.300;2023-07-29T13:38:32;99824.75;;;21.79;65.42
64368;BME280;50692;53.314;-6.300;2023-07-29T13:41:18;99824.41;;;22.14;59.76
64368;BME280;50692;53.314;-6.300;2023-07-29T13:44:04;99832.66;;;22.43;55.49
64368;BME280;50692;53.314;-6.300;2023-07-29T13:46:50;99842.34;;;22.90;53.77
64368;BME280;50692;53.314;-6.300;2023-07-29T13:49:36;99839.63;;;23.13;49.93
64368;BME280;50692;53.314;-6.300;2023-07-29T13:52:22;99841.44;;;23.21;50.14
64368;BME280;50692;53.314;-6.300;2023-07-29T13:55:08;99831.28;;;23.53;49.92
64368;BME280;50692;53.314;-6.300;2023-07-29T13:57:54;99828.22;;;23.70;47.94
64368;BME280;50692;53.314;-6.300;2023-07-29T14:00:40;99837.88;;;23.94;47.54
64368;BME280;50692;53.314;-6.300;2023-07-29T14:03:26;99836.06;;;24.16;47.15
64368;BME280;50692;53.314;-6.300;2023-07-29T14:06:11;99838.44;;;24.41;46.99
64368;BME280;50692;53.314;-6.300;2023-07-29T14:08:57;99837.84;;;24.67;46.33
64368;BME280;50692;53.314;-6.300;2023-07-29T14:11:43;99839.56;;;24.75;45.00
64368;BME280;50692;53.314;-6.300;2023-07-29T14:14:29;99846.13;;;24.87;44.94
64368;BME280;50692;53.314;-6.300;2023-07-29T14:17:14;99836.34;;;24.86;44.31
64368;BME280;50692;53.314;-6.300;2023-07-29T14:20:01;99837.22;;;25.15;44.18
64368;BME280;50692;53.314;-6.300;2023-07-29T14:22:46;99828.47;;;25.12;43.74
64368;BME280;50692;53.314;-6.300;2023-07-29T14:25:33;99851.72;;;24.85;43.35
64368;BME280;50692;53.314;-6.300;2023-07-29T14:28:19;99844.09;;;24.31;44.33
64368;BME280;50692;53.314;-6.300;2023-07-29T14:31:04;99845.31;;;24.07;45.00
64368;BME280;50692;53.314;-6.300;2023-07-29T14:33:50;99841.84;;;24.35;45.35
64368;BME280;50692;53.314;-6.300;2023-07-29T14:36:36;99827.31;;;24.72;44.70